NGTA

Details ICAO NGTA (TRW)
Name Bonriki International
Region Kiribati and Tuvalu
Timezone Pacific/Tarawa (UTC+12.0)
Plans Departing 21
Arriving 24
Stats Elevation 9 ft / 3 m (AMSL)
Location 1.381608° 173.146907°
Runways 1
Magnetic Variation 9.230° E
Sunrise 2017-12-13 18:22:01 UTC / 2017-12-14 06:22:01 Local
Sunset 2017-12-14 06:24:32 UTC / 2017-12-14 18:24:32 Local
Advertisement - Login to hide

Runways

ID Width Length Bearing (true) Bearing (mag) Surface Threshold Offset Overrun Length
09 131 ft / 40 m 6,622 ft / 2,018 m 97.30° 88.07° Asphalt 0 ft / 0 m 213 ft / 65 m
27 131 ft / 40 m 6,622 ft / 2,018 m 277.30° 268.07° Asphalt 269 ft / 82 m 197 ft / 60 m

Map

Weather


0- 5 10 15 20 25 30 35+ Temperature / ° C

Clouds and Precipitation
Forecast for 2017-12-14 00:00 UTC. Updated 2 hours ago

Ground ~20,000 ft ~40,000 ft Winds

METAR

NGTA 132200Z 09015KT 9999 FEW018TCU SCT020 BKN300 29/23 Q1008

TAF

TAF NGTA 131700Z 1318/1418 09015KT 9999 FEW020

Frequencies

Unicom 118.10 MHz TARAWA RDO
Tower 118.10 MHz FSS
Unicom 118.50 MHz TARAWA RDO
Tower 118.50 MHz FSS
Warning: Do not use this data for real-world aviation or navigation. No guarantee of current accuracy is given.